Time;durP1;ratioP1;P1;durP2;ratioP2;P2;SDS_P1;SDS_P2;PMS_P1;PMS_P2;Temp;Humidity;BMP_temperature;BMP_pressure;BME280_temperature;BME280_humidity;BME280_pressure;Samples;Min_cycle;Max_cycle;Signal;HPM_P1;HPM_P2
2024/04/19 00:00:37;;;;;;;8.80;4.67;;;2.40;99.90;;;;;;5450416;26;20259;-71
2024/04/19 00:03:44;;;;;;;10.03;5.30;;;2.20;99.90;;;;;;5449759;26;20298;-71
2024/04/19 00:07:09;;;;;;;8.53;4.77;;;2.50;99.90;;;;;;5450016;26;20286;-71
2024/04/19 00:10:15;;;;;;;8.40;4.90;;;2.20;99.90;;;;;;5448474;26;20212;-71
2024/04/19 00:13:18;;;;;;;13.33;4.87;;;2.20;99.90;;;;;;5449339;26;20709;-71
2024/04/19 00:16:27;;;;;;;9.80;5.07;;;2.20;99.90;;;;;;5429845;26;20273;-70
2024/04/19 00:19:17;;;;;;;12.93;5.50;;;2.30;99.90;;;;;;5448871;26;20223;-70
2024/04/19 00:22:05;;;;;;;9.43;4.87;;;2.20;99.90;;;;;;5423267;26;20223;-71
2024/04/19 00:25:04;;;;;;;9.70;5.60;;;2.30;99.90;;;;;;5425153;26;20556;-70
2024/04/19 00:27:52;;;;;;;11.50;5.23;;;2.20;99.90;;;;;;5449841;26;20215;-71
2024/04/19 00:30:45;;;;;;;10.93;5.83;;;2.20;99.90;;;;;;5449318;26;20291;-70
2024/04/19 00:33:33;;;;;;;12.50;6.23;;;2.20;99.90;;;;;;5448948;26;20216;-73
2024/04/19 00:36:21;;;;;;;9.63;5.20;;;2.20;99.90;;;;;;5450305;26;20691;-72
2024/04/19 00:39:08;;;;;;;11.33;5.93;;;2.10;99.90;;;;;;5448969;26;20271;-71
2024/04/19 00:41:56;;;;;;;11.77;6.20;;;2.00;99.90;;;;;;5449227;26;20547;-71
2024/04/19 00:44:44;;;;;;;11.20;5.80;;;1.90;99.90;;;;;;5424252;26;20231;-71
2024/04/19 00:47:31;;;;;;;11.03;5.77;;;1.90;99.90;;;;;;5448863;26;20323;-71
2024/04/19 00:50:19;;;;;;;11.57;5.87;;;2.00;99.90;;;;;;5449571;26;20739;-71
2024/04/19 00:53:08;;;;;;;11.10;5.73;;;2.00;99.90;;;;;;5448988;26;20564;-71
2024/04/19 00:55:57;;;;;;;11.97;5.83;;;2.00;99.90;;;;;;5448529;26;20606;-71
2024/04/19 00:58:44;;;;;;;12.60;6.00;;;1.90;99.90;;;;;;5448546;26;20217;-71
2024/04/19 01:01:34;;;;;;;12.00;6.00;;;1.90;99.90;;;;;;5448922;26;20215;-72
2024/04/19 01:04:22;;;;;;;12.63;6.43;;;1.80;99.90;;;;;;5448484;26;20230;-72
2024/04/19 01:07:10;;;;;;;12.90;6.50;;;1.90;99.90;;;;;;5448831;26;20218;-71
2024/04/19 01:09:58;;;;;;;11.90;6.20;;;1.90;99.90;;;;;;5448448;26;20223;-70
2024/04/19 01:12:45;;;;;;;11.77;6.20;;;2.00;99.90;;;;;;5423266;26;20219;-70
2024/04/19 01:15:47;;;;;;;12.93;6.50;;;1.90;99.90;;;;;;5342088;26;20286;-71
2024/04/19 01:18:49;;;;;;;11.57;6.20;;;1.80;99.90;;;;;;5343237;26;20324;-72
2024/04/19 01:21:55;;;;;;;10.87;6.13;;;1.80;99.90;;;;;;5320632;26;20218;-71
2024/04/19 01:24:49;;;;;;;13.73;6.07;;;1.80;99.90;;;;;;5343442;26;20214;-71
2024/04/19 01:30:47;;;;;;;11.67;6.33;;;1.80;99.90;;;;;;5343434;26;20219;-71
2024/04/19 01:33:35;;;;;;;12.87;6.57;;;1.80;99.90;;;;;;5344280;26;20332;-71
2024/04/19 01:36:23;;;;;;;12.47;6.50;;;1.90;99.90;;;;;;5343344;26;20266;-71
2024/04/19 01:39:10;;;;;;;13.13;7.17;;;1.80;99.90;;;;;;5319388;26;20698;-72
2024/04/19 01:42:01;;;;;;;14.77;7.00;;;1.80;99.90;;;;;;5345117;26;20266;-70
2024/04/19 01:44:48;;;;;;;13.47;6.87;;;1.80;99.90;;;;;;5343219;26;20366;-72
2024/04/19 01:47:38;;;;;;;15.40;7.73;;;1.80;99.90;;;;;;5343454;26;20611;-70
2024/04/19 01:50:26;;;;;;;15.73;8.33;;;1.80;99.90;;;;;;5319440;26;20287;-71
2024/04/19 01:53:19;;;;;;;16.23;8.87;;;1.70;99.90;;;;;;5391754;26;20216;-71
2024/04/19 01:59:47;;;;;;;20.73;10.20;;;1.70;99.90;;;;;;5208401;27;20226;-72
2024/04/19 02:02:34;;;;;;;19.53;10.50;;;1.60;99.90;;;;;;5208416;27;20223;-73
2024/04/19 02:05:24;;;;;;;17.13;10.57;;;1.60;99.90;;;;;;5208447;27;20248;-72
2024/04/19 02:08:18;;;;;;;20.50;11.20;;;1.70;99.90;;;;;;5209448;27;20223;-71
2024/04/19 02:11:06;;;;;;;21.13;11.87;;;1.70;99.90;;;;;;5208283;27;20251;-72
2024/04/19 02:13:59;;;;;;;21.97;11.93;;;1.70;99.90;;;;;;5208524;27;20232;-70
2024/04/19 02:16:50;;;;;;;22.73;12.27;;;1.60;99.90;;;;;;5209105;27;20252;-72
2024/04/19 02:19:50;;;;;;;22.60;12.10;;;1.40;99.90;;;;;;5209194;27;20235;-71
2024/04/19 02:22:37;;;;;;;22.37;12.60;;;1.50;99.90;;;;;;5206214;27;20654;-72
2024/04/19 02:25:25;;;;;;;22.87;12.93;;;1.50;99.90;;;;;;5208095;27;20269;-71
2024/04/19 02:31:19;;;;;;;22.13;12.47;;;1.60;99.90;;;;;;5263463;27;20228;-72
2024/04/19 02:34:06;;;;;;;25.97;13.63;;;1.60;99.90;;;;;;5273862;27;20232;-72
2024/04/19 02:36:54;;;;;;;23.90;13.40;;;1.60;99.90;;;;;;5335513;26;20282;-72
2024/04/19 02:39:42;;;;;;;23.30;13.57;;;1.60;99.90;;;;;;5380200;26;20948;-71
2024/04/19 02:42:29;;;;;;;23.00;12.87;;;1.60;99.90;;;;;;5377974;26;20217;-72
2024/04/19 02:45:17;;;;;;;22.70;13.10;;;1.60;99.90;;;;;;5380009;26;20242;-72
2024/04/19 02:48:11;;;;;;;22.23;12.73;;;1.50;99.90;;;;;;5380201;26;20552;-70
2024/04/19 02:50:59;;;;;;;21.77;12.30;;;1.40;99.90;;;;;;5381226;26;20237;-71
2024/04/19 02:53:47;;;;;;;21.80;12.43;;;1.40;99.90;;;;;;5378934;26;20322;-71
2024/04/19 02:56:35;;;;;;;20.37;11.90;;;1.40;99.90;;;;;;5381376;26;20273;-71
2024/04/19 02:59:41;;;;;;;22.67;12.20;;;1.40;99.90;;;;;;5379280;26;20636;-71
2024/04/19 03:02:29;;;;;;;18.73;11.07;;;1.40;99.90;;;;;;5380074;26;20267;-72
2024/04/19 03:05:17;;;;;;;19.97;11.03;;;1.50;99.90;;;;;;5380095;26;20295;-71
2024/04/19 03:08:07;;;;;;;18.50;11.07;;;1.40;99.90;;;;;;5380092;26;20273;-72
2024/04/19 03:10:55;;;;;;;17.80;10.03;;;1.30;99.90;;;;;;5381127;26;20568;-72
2024/04/19 03:14:01;;;;;;;20.57;10.67;;;1.30;99.90;;;;;;5379980;26;20213;-72
2024/04/19 03:16:51;;;;;;;21.17;11.03;;;1.30;99.90;;;;;;5392723;26;20234;-70
2024/04/19 03:19:41;;;;;;;19.73;10.50;;;1.20;99.90;;;;;;5414413;26;20228;-70
2024/04/19 03:22:29;;;;;;;18.33;10.27;;;1.20;99.90;;;;;;5415356;26;20674;-71
2024/04/19 03:25:37;;;;;;;20.10;11.80;;;1.20;99.90;;;;;;5414187;26;20216;-71
2024/04/19 03:28:34;;;;;;;19.23;10.53;;;1.20;99.90;;;;;;5415417;26;20274;-70
2024/04/19 03:31:21;;;;;;;21.57;11.47;;;1.20;99.90;;;;;;5415238;26;20761;-71
2024/04/19 03:34:09;;;;;;;20.83;11.27;;;1.10;99.90;;;;;;5416339;26;20252;-71
2024/04/19 03:37:05;;;;;;;19.13;11.57;;;1.10;99.90;;;;;;5414039;26;20255;-70
2024/04/19 03:39:53;;;;;;;21.40;11.90;;;1.20;99.90;;;;;;5414989;26;20263;-71
2024/04/19 03:42:47;;;;;;;22.13;12.40;;;1.20;99.90;;;;;;5413512;26;20228;-71
2024/04/19 03:46:12;;;;;;;23.40;12.60;;;1.00;99.90;;;;;;5390575;26;20217;-71
2024/04/19 03:49:00;;;;;;;22.43;12.47;;;1.10;99.90;;;;;;5414710;26;20720;-71
2024/04/19 03:51:49;;;;;;;21.83;12.37;;;1.10;99.90;;;;;;5415768;26;20263;-71
2024/04/19 03:54:36;;;;;;;23.13;12.17;;;1.10;99.90;;;;;;5413904;26;20263;-71
2024/04/19 03:57:24;;;;;;;23.83;13.03;;;1.10;99.90;;;;;;5413110;26;20313;-71
2024/04/19 04:00:12;;;;;;;26.27;13.07;;;1.10;99.90;;;;;;5416836;26;20263;-71
2024/04/19 04:02:59;;;;;;;23.37;13.37;;;1.10;99.90;;;;;;5414092;26;20258;-71
2024/04/19 04:05:54;;;;;;;25.80;13.47;;;1.10;99.90;;;;;;5414554;26;20229;-71
2024/04/19 04:08:48;;;;;;;25.80;13.63;;;1.20;99.90;;;;;;5413268;26;20219;-71
2024/04/19 04:11:44;;;;;;;29.10;14.60;;;1.30;99.90;;;;;;5413585;26;20220;-71
2024/04/19 04:14:38;;;;;;;26.40;13.83;;;1.30;99.90;;;;;;5415468;26;20216;-71
2024/04/19 04:17:44;;;;;;;26.30;14.10;;;1.30;99.90;;;;;;5438050;26;20774;-71
2024/04/19 04:20:35;;;;;;;26.13;14.30;;;1.30;99.90;;;;;;5451139;26;20227;-71
2024/04/19 04:23:22;;;;;;;26.87;14.73;;;1.40;99.90;;;;;;5424976;26;20219;-72
2024/04/19 04:26:13;;;;;;;26.80;14.67;;;1.50;99.90;;;;;;5451420;26;20751;-70
2024/04/19 04:29:00;;;;;;;28.10;15.10;;;1.60;99.90;;;;;;5451252;26;20664;-71
2024/04/19 04:31:48;;;;;;;26.63;14.57;;;1.80;99.90;;;;;;5449334;26;20216;-71
2024/04/19 04:34:35;;;;;;;26.47;14.17;;;1.80;99.90;;;;;;5423265;26;20822;-71
2024/04/19 04:37:22;;;;;;;26.57;14.87;;;1.80;99.90;;;;;;5449074;26;20618;-71
2024/04/19 04:40:16;;;;;;;27.53;14.73;;;2.00;99.90;;;;;;5449751;26;20217;-71
2024/04/19 04:43:03;;;;;;;24.70;14.17;;;2.10;99.90;;;;;;5424755;26;20216;-71
2024/04/19 04:45:51;;;;;;;26.63;14.03;;;2.10;99.90;;;;;;5422421;26;20215;-71
2024/04/19 04:48:39;;;;;;;28.37;14.73;;;2.20;99.90;;;;;;5448174;26;20211;-71
2024/04/19 04:51:27;;;;;;;25.07;14.33;;;2.30;99.90;;;;;;5424803;26;20343;-72
2024/04/19 04:54:34;;;;;;;24.97;13.17;;;2.30;99.90;;;;;;5450029;26;20215;-72
2024/04/19 04:57:23;;;;;;;24.77;13.37;;;2.40;99.90;;;;;;5342518;26;20282;-72
2024/04/19 05:00:10;;;;;;;23.57;13.47;;;2.40;99.90;;;;;;5342401;26;20796;-71
2024/04/19 05:02:59;;;;;;;28.03;13.67;;;2.40;99.90;;;;;;5316670;26;20230;-71
2024/04/19 05:05:47;;;;;;;24.73;13.37;;;2.40;99.90;;;;;;5316850;26;20238;-72
2024/04/19 05:08:34;;;;;;;23.57;13.73;;;2.30;99.90;;;;;;5343550;26;20706;-71
2024/04/19 05:11:21;;;;;;;26.30;13.23;;;2.20;99.90;;;;;;5341507;26;20594;-72
2024/04/19 05:14:09;;;;;;;25.00;13.10;;;2.40;99.90;;;;;;5317332;26;20796;-72
2024/04/19 05:16:57;;;;;;;26.00;13.63;;;2.60;99.90;;;;;;5342065;26;20236;-71
2024/04/19 05:19:44;;;;;;;29.40;13.60;;;2.70;99.90;;;;;;5319104;26;20239;-72
2024/04/19 05:22:37;;;;;;;22.07;12.33;;;2.80;99.90;;;;;;5340275;26;20219;-72
2024/04/19 05:25:25;;;;;;;25.37;12.77;;;2.90;99.90;;;;;;5339344;26;20223;-71
2024/04/19 05:28:13;;;;;;;22.17;11.63;;;3.00;99.90;;;;;;5342280;26;20361;-71
2024/04/19 05:31:00;;;;;;;24.30;12.43;;;3.10;99.90;;;;;;5341763;26;20218;-71
2024/04/19 05:33:51;;;;;;;22.07;12.00;;;3.10;99.90;;;;;;5372470;26;20284;-72
2024/04/19 05:36:39;;;;;;;21.47;11.70;;;3.20;99.90;;;;;;5448164;26;20215;-71
2024/04/19 05:39:26;;;;;;;18.07;10.73;;;3.20;99.90;;;;;;5448861;26;20216;-71
2024/04/19 05:42:13;;;;;;;21.87;11.33;;;3.20;99.90;;;;;;5448927;26;20609;-71
2024/04/19 05:45:02;;;;;;;21.70;11.13;;;3.30;99.90;;;;;;5423431;26;20224;-71
2024/04/19 05:47:49;;;;;;;17.00;10.10;;;3.50;99.90;;;;;;5447704;26;20226;-72
2024/04/19 05:50:37;;;;;;;18.00;10.37;;;3.60;99.90;;;;;;5448496;26;20241;-72
2024/04/19 05:53:24;;;;;;;18.43;10.90;;;3.90;99.90;;;;;;5449826;26;20259;-72
2024/04/19 05:56:12;;;;;;;18.13;9.43;;;4.10;99.90;;;;;;5448923;26;20551;-71
2024/04/19 05:58:59;;;;;;;16.83;10.03;;;4.30;99.90;;;;;;5421380;26;20258;-71
2024/04/19 06:01:47;;;;;;;14.57;8.30;;;4.40;99.90;;;;;;5451830;26;20403;-72
2024/04/19 06:04:34;;;;;;;22.83;9.67;;;4.40;99.90;;;;;;5427154;26;20613;-72
2024/04/19 06:07:22;;;;;;;15.50;9.30;;;4.50;99.90;;;;;;5451698;26;20223;-72
2024/04/19 06:10:10;;;;;;;16.10;8.53;;;4.50;99.90;;;;;;5450986;26;20217;-72
2024/04/19 06:12:57;;;;;;;13.80;8.43;;;4.60;99.90;;;;;;5451291;26;20673;-72
2024/04/19 06:15:45;;;;;;;15.57;8.63;;;4.70;99.90;;;;;;5450836;26;20275;-72
2024/04/19 06:18:33;;;;;;;12.40;7.67;;;4.90;99.90;;;;;;5425609;26;20821;-72
2024/04/19 06:21:20;;;;;;;12.63;8.13;;;5.10;99.90;;;;;;5451968;26;20255;-72
2024/04/19 06:24:08;;;;;;;14.20;8.17;;;5.00;99.90;;;;;;5451375;26;20696;-72
2024/04/19 06:26:55;;;;;;;13.07;7.80;;;5.20;99.90;;;;;;5451977;26;20300;-72
2024/04/19 06:29:43;;;;;;;11.47;7.43;;;5.50;99.90;;;;;;5451191;26;20667;-72
2024/04/19 06:32:30;;;;;;;12.50;6.90;;;5.70;99.90;;;;;;5451063;26;20235;-72
2024/04/19 06:35:19;;;;;;;12.67;6.90;;;5.70;99.90;;;;;;5425650;26;20764;-72
2024/04/19 06:38:07;;;;;;;12.53;6.63;;;5.50;99.90;;;;;;5450668;26;20747;-71
2024/04/19 06:40:55;;;;;;;10.97;6.40;;;5.70;99.90;;;;;;5452009;26;20325;-71
2024/04/19 06:43:42;;;;;;;10.70;6.47;;;5.70;99.90;;;;;;5450801;26;20260;-72
2024/04/19 06:46:30;;;;;;;11.47;6.50;;;6.00;99.90;;;;;;5451843;26;20208;-72
2024/04/19 06:49:19;;;;;;;12.33;6.53;;;6.20;99.90;;;;;;5425298;26;20227;-72
2024/04/19 06:52:13;;;;;;;12.73;6.70;;;6.40;99.90;;;;;;5450759;26;20692;-72
2024/04/19 06:55:42;;;;;;;11.57;5.50;;;6.60;99.90;;;;;;5453114;26;20215;-72
2024/04/19 06:58:30;;;;;;;10.43;5.77;;;6.70;99.90;;;;;;5451294;26;20257;-72
2024/04/19 07:01:18;;;;;;;9.53;5.27;;;6.60;99.90;;;;;;5449645;26;20749;-72
2024/04/19 07:04:06;;;;;;;7.80;5.20;;;6.50;99.90;;;;;;5451490;26;20358;-72
2024/04/19 07:06:53;;;;;;;7.90;4.60;;;6.60;99.90;;;;;;5451392;26;20216;-72
2024/04/19 07:09:41;;;;;;;7.17;4.50;;;6.60;99.90;;;;;;5448987;26;20261;-72
2024/04/19 07:12:29;;;;;;;5.77;3.77;;;6.70;99.90;;;;;;5450119;26;20215;-72
2024/04/19 07:15:16;;;;;;;6.37;3.43;;;6.80;99.90;;;;;;5424944;26;20219;-72
2024/04/19 07:18:05;;;;;;;6.53;3.83;;;6.70;99.90;;;;;;5450719;26;20271;-72
2024/04/19 07:20:53;;;;;;;6.17;3.83;;;6.70;99.90;;;;;;5451482;26;20280;-72
2024/04/19 07:23:41;;;;;;;5.37;3.37;;;6.80;99.90;;;;;;5425162;26;20295;-72
2024/04/19 07:26:29;;;;;;;7.30;3.30;;;6.90;99.90;;;;;;5450778;26;20217;-72
2024/04/19 07:29:16;;;;;;;7.13;3.90;;;7.00;99.90;;;;;;5424874;26;20642;-72
2024/04/19 07:32:04;;;;;;;6.77;3.43;;;7.20;99.90;;;;;;5449722;26;20219;-72
2024/04/19 07:34:51;;;;;;;4.70;3.00;;;7.40;99.90;;;;;;5450081;26;20230;-72
2024/04/19 07:37:39;;;;;;;5.23;3.13;;;7.50;99.90;;;;;;5448708;26;20286;-72
2024/04/19 07:40:26;;;;;;;6.37;3.67;;;7.70;99.90;;;;;;5450072;26;20237;-72
2024/04/19 07:43:47;;;;;;;7.17;3.13;;;7.70;99.90;;;;;;5340657;26;20219;-72
2024/04/19 07:46:42;;;;;;;5.47;2.80;;;7.80;99.90;;;;;;5319808;26;20218;-73
2024/04/19 07:49:48;;;;;;;4.50;2.87;;;7.90;99.90;;;;;;5342317;26;20317;-72
2024/04/19 07:52:36;;;;;;;6.43;3.00;;;7.90;99.90;;;;;;5322250;26;20220;-72
2024/04/19 07:55:23;;;;;;;4.50;3.00;;;7.80;99.90;;;;;;5342307;26;20236;-72
2024/04/19 07:58:12;;;;;;;4.83;2.90;;;7.60;99.90;;;;;;5341772;26;20218;-72
2024/04/19 08:00:59;;;;;;;6.97;2.83;;;7.40;99.90;;;;;;5341180;26;20290;-72
2024/04/19 08:03:48;;;;;;;9.20;4.37;;;7.50;99.90;;;;;;5342319;26;21210;-72
2024/04/19 08:06:36;;;;;;;6.63;3.30;;;7.50;99.90;;;;;;5296344;26;20229;-72
2024/04/19 08:09:23;;;;;;;7.33;3.47;;;7.80;99.90;;;;;;5342221;26;20222;-72
2024/04/19 08:12:11;;;;;;;6.50;3.73;;;8.10;99.90;;;;;;5342151;26;20218;-72
2024/04/19 08:14:58;;;;;;;13.87;4.47;;;8.20;99.90;;;;;;5318397;26;20267;-72
2024/04/19 08:17:46;;;;;;;7.33;4.03;;;8.30;99.90;;;;;;5341783;26;20296;-71
2024/04/19 08:20:34;;;;;;;8.13;4.10;;;8.10;99.90;;;;;;5398351;26;20253;-73
2024/04/19 08:23:25;;;;;;;9.17;4.10;;;8.20;99.90;;;;;;5449111;26;20287;-72
2024/04/19 08:26:12;;;;;;;9.80;4.37;;;8.40;99.90;;;;;;5449134;26;20270;-72
2024/04/19 08:29:00;;;;;;;8.47;5.00;;;8.10;99.90;;;;;;5449598;26;20218;-73
2024/04/19 08:31:48;;;;;;;9.23;4.47;;;8.20;99.90;;;;;;5448996;26;20741;-72
2024/04/19 08:34:35;;;;;;;11.30;4.93;;;8.60;99.90;;;;;;5449852;26;20270;-72
2024/04/19 08:37:23;;;;;;;9.93;5.70;;;8.60;99.90;;;;;;5450265;26;20214;-73
2024/04/19 08:40:12;;;;;;;8.43;5.67;;;8.80;99.90;;;;;;5449333;26;20287;-72
2024/04/19 08:43:01;;;;;;;10.97;6.37;;;8.70;99.90;;;;;;5423771;26;20259;-72
2024/04/19 08:45:48;;;;;;;10.77;6.37;;;8.60;99.90;;;;;;5451212;26;20235;-72
2024/04/19 08:48:38;;;;;;;10.83;6.40;;;8.40;99.90;;;;;;5450821;26;20226;-73
2024/04/19 08:51:26;;;;;;;10.53;6.53;;;8.40;99.90;;;;;;5472382;26;20223;-72
2024/04/19 08:54:35;;;;;;;10.60;6.43;;;8.10;99.90;;;;;;5447662;26;20349;-73
2024/04/19 08:57:26;;;;;;;10.80;6.80;;;8.00;99.90;;;;;;5423975;26;20319;-72
2024/04/19 09:00:14;;;;;;;12.00;6.70;;;8.30;99.90;;;;;;5448708;26;20324;-73
2024/04/19 09:03:05;;;;;;;11.13;6.77;;;8.50;99.90;;;;;;5448835;26;20215;-72
2024/04/19 09:05:56;;;;;;;11.40;6.90;;;8.90;99.90;;;;;;5449370;26;20249;-72
2024/04/19 09:08:44;;;;;;;9.93;6.07;;;9.20;99.90;;;;;;5449307;26;20621;-73
2024/04/19 09:11:32;;;;;;;9.50;5.60;;;9.50;99.90;;;;;;5448389;26;20215;-72
2024/04/19 09:14:19;;;;;;;8.37;5.67;;;10.00;99.90;;;;;;5448120;26;20555;-73
2024/04/19 09:17:06;;;;;;;7.27;4.90;;;10.60;99.90;;;;;;5422871;26;20269;-73
2024/04/19 09:19:56;;;;;;;8.83;4.97;;;10.80;99.90;;;;;;5447932;26;20273;-72
2024/04/19 09:22:44;;;;;;;6.80;4.53;;;11.00;99.90;;;;;;5423167;26;20216;-72
2024/04/19 09:25:31;;;;;;;11.73;4.20;;;11.30;99.90;;;;;;5447966;26;20320;-73
2024/04/19 09:28:20;;;;;;;7.47;3.67;;;11.20;99.90;;;;;;5449187;26;20692;-73
2024/04/19 09:31:08;;;;;;;7.73;3.90;;;11.10;99.90;;;;;;5447984;26;20560;-73
2024/04/19 09:33:57;;;;;;;4.73;3.03;;;10.30;99.90;;;;;;5450097;26;20536;-73
2024/04/19 09:36:48;;;;;;;6.00;2.90;;;10.40;99.90;;;;;;5451929;26;20691;-73
2024/04/19 09:39:37;;;;;;;4.93;3.07;;;10.40;99.90;;;;;;5451817;26;20215;-73
2024/04/19 09:42:25;;;;;;;5.80;3.37;;;10.80;99.90;;;;;;5451742;26;20212;-72
2024/04/19 09:45:14;;;;;;;5.20;2.97;;;10.50;99.90;;;;;;5451230;26;20227;-73
2024/04/19 09:48:05;;;;;;;3.67;2.33;;;10.60;99.90;;;;;;5451753;26;20262;-73
2024/04/19 09:50:57;;;;;;;7.30;2.17;;;10.90;99.90;;;;;;5476327;26;20227;-72
2024/04/19 09:53:49;;;;;;;6.63;2.20;;;11.30;99.90;;;;;;5426258;26;20227;-72
2024/04/19 09:56:50;;;;;;;5.50;2.20;;;11.30;99.90;;;;;;5452341;26;20211;-73
2024/04/19 09:59:38;;;;;;;6.00;2.63;;;11.00;99.90;;;;;;5473840;26;20701;-73
2024/04/19 10:02:26;;;;;;;4.47;2.30;;;10.80;99.90;;;;;;5452397;26;20211;-73
2024/04/19 10:05:24;;;;;;;3.70;2.60;;;10.80;99.90;;;;;;5450442;26;20239;-73
2024/04/19 10:08:13;;;;;;;7.23;2.80;;;11.60;99.90;;;;;;5425888;26;20220;-73
2024/04/19 10:11:01;;;;;;;4.93;2.40;;;11.60;99.90;;;;;;5424383;26;20223;-73
2024/04/19 10:13:49;;;;;;;5.27;2.80;;;11.30;99.90;;;;;;5452246;26;20227;-73
2024/04/19 10:16:41;;;;;;;3.90;2.77;;;11.20;99.90;;;;;;5452042;26;20232;-73
2024/04/19 10:19:33;;;;;;;5.63;2.97;;;11.20;99.90;;;;;;5474350;26;20646;-72
2024/04/19 10:22:39;;;;;;;6.50;2.90;;;11.40;99.90;;;;;;5449558;26;20223;-72
2024/04/19 10:25:26;;;;;;;5.00;2.50;;;11.50;99.90;;;;;;5423193;26;20219;-73
2024/04/19 10:28:17;;;;;;;3.67;2.30;;;11.90;99.90;;;;;;5450584;26;20599;-73
2024/04/19 10:31:05;;;;;;;6.83;2.50;;;12.70;99.90;;;;;;5450932;26;20808;-73
2024/04/19 10:33:53;;;;;;;6.13;2.60;;;13.40;99.90;;;;;;5425601;26;20217;-73
2024/04/19 10:36:41;;;;;;;3.80;2.43;;;13.20;99.90;;;;;;5450520;26;20211;-73
2024/04/19 10:39:29;;;;;;;5.17;2.50;;;13.00;99.90;;;;;;5426000;26;20223;-73
2024/04/19 10:42:23;;;;;;;5.40;2.67;;;12.50;99.90;;;;;;5450650;26;20633;-73
2024/04/19 10:45:15;;;;;;;5.53;2.20;;;12.70;99.90;;;;;;5450272;26;20216;-73
2024/04/19 10:48:04;;;;;;;4.47;2.37;;;12.20;99.90;;;;;;5450767;26;20258;-73
2024/04/19 10:50:52;;;;;;;4.47;2.00;;;11.90;99.90;;;;;;5450574;26;20227;-73
2024/04/19 10:53:40;;;;;;;6.13;2.40;;;11.10;99.90;;;;;;5450450;26;20223;-73
2024/04/19 10:56:28;;;;;;;4.30;2.13;;;10.70;99.90;;;;;;5452666;26;20212;-73
2024/04/19 10:59:16;;;;;;;7.70;2.40;;;11.10;99.90;;;;;;5452701;26;20265;-72
2024/04/19 11:02:04;;;;;;;4.93;2.30;;;12.20;99.90;;;;;;5424281;26;20293;-73
2024/04/19 11:04:53;;;;;;;7.03;2.43;;;12.60;99.90;;;;;;5448926;26;20270;-73
2024/04/19 11:07:41;;;;;;;6.07;2.10;;;12.60;99.90;;;;;;5423534;26;20211;-73
2024/04/19 11:10:29;;;;;;;4.27;1.80;;;12.20;99.90;;;;;;5451304;26;20216;-73
2024/04/19 11:13:16;;;;;;;4.03;2.10;;;12.30;99.90;;;;;;5451366;26;20215;-73
2024/04/19 11:16:05;;;;;;;4.53;2.30;;;13.00;99.90;;;;;;5450198;26;20287;-73
2024/04/19 11:18:52;;;;;;;3.53;1.77;;;13.50;99.90;;;;;;5451061;26;20260;-73
2024/04/19 11:21:40;;;;;;;4.67;1.93;;;14.60;99.90;;;;;;5400998;26;20259;-73
2024/04/19 11:24:29;;;;;;;3.60;1.90;;;15.70;99.90;;;;;;5451363;26;20295;-73
2024/04/19 11:27:17;;;;;;;3.73;1.70;;;16.10;98.10;;;;;;5449753;26;20324;-73
2024/04/19 11:30:05;;;;;;;5.13;1.90;;;16.00;97.50;;;;;;5451304;26;20603;-73
2024/04/19 11:32:53;;;;;;;2.83;1.90;;;16.60;95.00;;;;;;5425163;26;20216;-73
2024/04/19 11:35:41;;;;;;;4.03;1.93;;;15.60;95.20;;;;;;5424825;26;20231;-73
2024/04/19 11:38:31;;;;;;;3.83;2.10;;;16.00;95.00;;;;;;5450619;26;20324;-73
2024/04/19 11:41:18;;;;;;;5.33;1.57;;;15.30;95.20;;;;;;5473383;26;20212;-73
2024/04/19 11:44:08;;;;;;;5.73;2.07;;;14.80;94.60;;;;;;5424915;26;20246;-73
2024/04/19 11:47:03;;;;;;;7.53;1.90;;;14.40;95.90;;;;;;5424527;26;20216;-73
2024/04/19 11:49:50;;;;;;;4.20;1.80;;;14.10;97.30;;;;;;5449628;26;20230;-73
2024/04/19 11:52:38;;;;;;;3.40;1.50;;;15.10;95.40;;;;;;5425496;26;20602;-73
2024/04/19 11:55:26;;;;;;;3.63;1.83;;;17.10;95.80;;;;;;5424807;26;20270;-73
2024/04/19 11:58:14;;;;;;;5.30;1.80;;;17.70;91.90;;;;;;5473702;26;20298;-73
2024/04/19 12:01:02;;;;;;;4.93;2.07;;;17.40;90.20;;;;;;5450783;26;20700;-73
2024/04/19 12:03:50;;;;;;;4.60;1.80;;;17.70;90.00;;;;;;5450389;26;20215;-73
2024/04/19 12:06:38;;;;;;;6.17;2.13;;;17.10;89.20;;;;;;5424582;26;20358;-73
2024/04/19 12:09:26;;;;;;;4.67;1.90;;;16.60;90.50;;;;;;5450615;26;20215;-73
2024/04/19 12:12:15;;;;;;;3.23;1.97;;;16.30;90.60;;;;;;5449297;26;20227;-73
2024/04/19 12:15:22;;;;;;;5.03;2.07;;;15.40;91.20;;;;;;5429813;26;20737;-73
2024/04/19 12:18:29;;;;;;;5.17;1.80;;;14.50;92.30;;;;;;5378123;26;20824;-73
2024/04/19 12:21:17;;;;;;;3.43;1.60;;;13.90;92.50;;;;;;5426630;26;20217;-73
2024/04/19 12:24:06;;;;;;;3.43;1.60;;;14.20;91.90;;;;;;5376313;26;20225;-73
2024/04/19 12:26:56;;;;;;;4.53;1.77;;;14.00;92.40;;;;;;5376404;26;20574;-73
2024/04/19 12:29:45;;;;;;;4.87;1.83;;;14.00;92.90;;;;;;5378057;26;20279;-73
2024/04/19 12:32:33;;;;;;;3.53;1.70;;;13.20;93.20;;;;;;5379600;26;20219;-73
2024/04/19 12:35:23;;;;;;;3.13;1.80;;;12.90;94.40;;;;;;5379783;26;20276;-73
2024/04/19 12:38:11;;;;;;;6.60;2.03;;;12.90;94.50;;;;;;5377021;26;20218;-73
2024/04/19 12:40:58;;;;;;;3.23;1.77;;;12.20;95.10;;;;;;5378668;26;20217;-73
2024/04/19 12:43:47;;;;;;;2.67;1.90;;;11.60;94.80;;;;;;5424966;26;20218;-73
2024/04/19 12:46:35;;;;;;;4.23;2.00;;;11.60;95.90;;;;;;5378420;26;20702;-73
2024/04/19 12:49:25;;;;;;;5.10;2.17;;;11.70;97.20;;;;;;5378070;26;20304;-73
2024/04/19 12:52:13;;;;;;;4.57;2.40;;;11.10;99.30;;;;;;5427347;26;20577;-72
2024/04/19 12:55:01;;;;;;;4.13;2.50;;;10.50;99.90;;;;;;5378631;26;20553;-72
2024/04/19 12:57:49;;;;;;;3.70;2.50;;;10.20;99.90;;;;;;5378335;26;20277;-73
2024/04/19 13:00:36;;;;;;;4.37;2.73;;;10.60;99.90;;;;;;5378188;26;20229;-73
2024/04/19 13:03:24;;;;;;;3.70;2.40;;;11.50;99.90;;;;;;5378293;26;20264;-73
2024/04/19 13:06:12;;;;;;;4.70;2.23;;;12.20;99.90;;;;;;5379614;26;20214;-73
2024/04/19 13:09:00;;;;;;;3.33;2.23;;;13.20;99.90;;;;;;5376506;26;20562;-74
2024/04/19 13:11:47;;;;;;;3.57;2.27;;;13.90;99.90;;;;;;5379688;26;20225;-73
2024/04/19 13:14:35;;;;;;;4.13;2.17;;;13.80;99.90;;;;;;5381345;26;20329;-73
2024/04/19 13:17:23;;;;;;;4.23;2.33;;;13.70;99.90;;;;;;5426341;26;20270;-73
2024/04/19 13:20:11;;;;;;;4.00;2.50;;;13.20;98.80;;;;;;5452151;26;20309;-73
2024/04/19 13:22:58;;;;;;;3.43;2.50;;;12.60;99.90;;;;;;5426502;26;20347;-73
2024/04/19 13:29:44;;;;;;;9.27;3.47;;;11.60;99.90;;;;;;5454055;26;20257;-73
2024/04/19 13:32:33;;;;;;;7.17;3.00;;;11.00;99.90;;;;;;5453070;26;20267;-73
2024/04/19 13:35:21;;;;;;;4.10;2.40;;;11.00;99.90;;;;;;5426788;26;20711;-73
2024/04/19 13:38:08;;;;;;;3.67;2.60;;;11.00;99.90;;;;;;5451462;26;20284;-73
2024/04/19 13:41:27;;;;;;;5.27;2.17;;;10.90;99.90;;;;;;5426197;26;21113;-73
2024/04/19 13:44:39;;;;;;;3.53;2.00;;;10.60;99.90;;;;;;5434044;26;20316;-72
2024/04/19 13:47:50;;;;;;;3.27;2.10;;;10.30;99.90;;;;;;5426719;26;20211;-72
2024/04/19 13:50:39;;;;;;;3.00;2.00;;;10.30;99.90;;;;;;5451620;26;20591;-73
2024/04/19 13:53:27;;;;;;;5.63;2.33;;;10.00;99.90;;;;;;5452543;26;20215;-73
2024/04/19 13:56:15;;;;;;;4.60;2.77;;;9.90;99.90;;;;;;5426473;26;20227;-73
2024/04/19 13:59:05;;;;;;;5.60;2.67;;;9.90;99.90;;;;;;5452688;26;20305;-73
2024/04/19 14:01:53;;;;;;;6.60;3.07;;;9.60;99.90;;;;;;5451557;26;20211;-75
2024/04/19 14:04:40;;;;;;;5.53;2.97;;;9.40;99.90;;;;;;5424991;26;20745;-75
2024/04/19 14:07:28;;;;;;;4.60;2.90;;;9.40;99.90;;;;;;5451703;26;20679;-75
2024/04/19 14:10:15;;;;;;;5.57;3.07;;;9.40;99.90;;;;;;5451074;26;20224;-75
2024/04/19 14:13:04;;;;;;;5.03;2.97;;;9.50;99.90;;;;;;5451604;26;20216;-75
2024/04/19 14:15:52;;;;;;;5.17;3.10;;;9.50;99.90;;;;;;5453183;26;20215;-74
2024/04/19 14:18:41;;;;;;;6.00;2.80;;;9.50;99.90;;;;;;5450923;26;20218;-75
2024/04/19 14:21:29;;;;;;;5.57;3.17;;;9.60;99.90;;;;;;5450204;26;20216;-75
2024/04/19 14:24:17;;;;;;;6.53;3.20;;;9.70;99.90;;;;;;5451868;26;21186;-75
2024/04/19 14:27:05;;;;;;;4.77;3.00;;;9.80;99.90;;;;;;5450810;26;20703;-75
2024/04/19 14:29:53;;;;;;;4.40;3.03;;;9.90;99.90;;;;;;5451170;26;20253;-74
2024/04/19 14:32:41;;;;;;;5.38;3.10;;;9.90;99.90;;;;;;5426665;26;21139;-72
2024/04/19 14:35:29;;;;;;;6.00;3.67;;;9.90;99.90;;;;;;5450951;26;20254;-75
2024/04/19 14:38:16;;;;;;;3.73;3.10;;;9.40;99.90;;;;;;5450982;26;20219;-74
2024/04/19 14:41:05;;;;;;;5.87;3.40;;;9.40;99.90;;;;;;5451123;26;20279;-73
2024/04/19 14:43:53;;;;;;;5.90;3.30;;;9.30;99.90;;;;;;5451012;26;20262;-73
2024/04/19 14:46:43;;;;;;;4.33;2.90;;;9.00;99.90;;;;;;5453755;26;20285;-78
2024/04/19 14:49:31;;;;;;;4.60;2.90;;;8.70;99.90;;;;;;5425805;26;20295;-75
2024/04/19 14:52:18;;;;;;;5.77;3.30;;;8.30;99.90;;;;;;5451321;26;20227;-74
2024/04/19 14:55:06;;;;;;;5.63;3.43;;;8.30;99.90;;;;;;5450739;26;20215;-76
2024/04/19 14:57:54;;;;;;;4.27;2.70;;;8.20;99.90;;;;;;5449777;26;20222;-75